createdAt,value
2023-03-24T00:01:22.067Z,48.19
2023-03-24T00:03:52.075Z,48.85
2023-03-24T00:06:22.614Z,46.63
2023-03-24T00:08:50.225Z,49.37
2023-03-24T00:11:19.451Z,49.21
2023-03-24T00:13:50.162Z,49.12
2023-03-24T00:16:19.594Z,50.94
2023-03-24T00:18:52.993Z,50.42
2023-03-24T00:21:25.650Z,49.97
2023-03-24T00:23:58.275Z,50.58
2023-03-24T00:26:26.419Z,48.08
2023-03-24T00:28:55.011Z,48.31
2023-03-24T00:31:22.712Z,48.19
2023-03-24T00:33:53.819Z,46.58
2023-03-24T00:36:25.803Z,49.05
2023-03-24T00:38:56.535Z,50.88
2023-03-24T00:41:27.179Z,50.01
2023-03-24T00:43:59.749Z,50.20
2023-03-24T00:46:27.952Z,48.29
2023-03-24T00:49:24.022Z,48.11
2023-03-24T00:51:58.099Z,49.00
2023-03-24T00:54:27.800Z,48.23
2023-03-24T00:56:56.031Z,50.16
2023-03-24T00:59:23.501Z,49.56
2023-03-24T01:02:08.131Z,49.86
2023-03-24T01:04:36.096Z,49.81
2023-03-24T01:07:03.525Z,51.33
2023-03-24T01:09:30.761Z,51.76
2023-03-24T01:11:58.166Z,52.38
2023-03-24T01:14:25.688Z,51.75
2023-03-24T01:16:53.155Z,51.48
2023-03-24T01:19:20.464Z,51.08
2023-03-24T01:21:50.828Z,50.63
2023-03-24T01:24:18.226Z,52.63
2023-03-24T01:26:45.550Z,53.50
2023-03-24T01:29:13.163Z,54.28
2023-03-24T01:31:40.648Z,55.15
2023-03-24T01:34:08.052Z,55.72
2023-03-24T01:36:35.340Z,56.76
2023-03-24T01:39:03.719Z,56.46
2023-03-24T01:41:39.926Z,56.76
2023-03-24T01:44:29.837Z,55.55
2023-03-24T01:46:58.678Z,55.49
2023-03-24T01:50:02.595Z,56.04
2023-03-24T01:52:36.054Z,55.59
2023-03-24T01:55:18.554Z,56.84
2023-03-24T01:57:55.983Z,56.01
2023-03-24T02:00:27.968Z,55.64
2023-03-24T02:03:22.332Z,56.13
2023-03-24T02:05:57.724Z,55.96
2023-03-24T02:08:39.326Z,55.54
2023-03-24T02:11:08.438Z,55.49
2023-03-24T02:13:44.418Z,56.02
2023-03-24T02:17:04.109Z,56.60
2023-03-24T02:20:11.335Z,56.00
2023-03-24T02:23:22.313Z,54.34
2023-03-24T02:27:09.649Z,54.91
2023-03-24T02:30:19.811Z,54.18
2023-03-24T02:33:19.840Z,53.79
2023-03-24T02:36:11.484Z,53.94
2023-03-24T02:39:10.885Z,54.05
2023-03-24T02:42:05.601Z,53.64
2023-03-24T02:44:52.994Z,53.28
2023-03-24T02:47:51.566Z,53.93
2023-03-24T02:50:54.579Z,54.15
2023-03-24T02:53:46.501Z,53.84
2023-03-24T02:56:39.390Z,53.06
2023-03-24T02:59:37.366Z,52.17
2023-03-24T03:02:23.123Z,50.92
2023-03-24T03:05:13.999Z,53.16
2023-03-24T03:07:47.073Z,51.25
2023-03-24T03:10:31.957Z,51.75
2023-03-24T03:13:10.333Z,50.55
2023-03-24T03:15:49.855Z,52.06
2023-03-24T03:18:43.480Z,50.56
2023-03-24T03:21:16.441Z,52.25
2023-03-24T03:23:57.890Z,52.72
2023-03-24T03:26:32.904Z,53.04
2023-03-24T03:29:23.321Z,53.25
2023-03-24T03:32:07.730Z,53.08
2023-03-24T03:35:19.921Z,52.84
2023-03-24T03:38:14.628Z,53.28
2023-03-24T03:40:53.049Z,52.53
2023-03-24T03:43:26.050Z,52.51
2023-03-24T03:45:55.187Z,51.91
2023-03-24T03:48:29.282Z,52.86
2023-03-24T03:51:10.232Z,52.43
2023-03-24T03:53:53.024Z,52.48
2023-03-24T03:56:27.879Z,52.18
2023-03-24T03:59:25.222Z,53.06
2023-03-24T04:01:53.501Z,53.57
2023-03-24T04:04:48.415Z,53.13
2023-03-24T04:07:43.721Z,53.47
2023-03-24T04:10:54.085Z,53.48
2023-03-24T04:13:59.693Z,53.33
2023-03-24T04:17:06.648Z,53.81
2023-03-24T04:20:15.025Z,53.31
2023-03-24T04:23:14.579Z,52.99
2023-03-24T04:25:56.864Z,53.44
2023-03-24T04:28:52.534Z,53.37
2023-03-24T04:31:49.308Z,52.88
2023-03-24T04:34:45.061Z,53.20
2023-03-24T04:37:45.467Z,52.76
2023-03-24T04:40:21.029Z,52.81
2023-03-24T04:42:55.778Z,51.04
2023-03-24T04:45:28.651Z,50.66
2023-03-24T04:48:19.268Z,50.77
2023-03-24T04:51:05.925Z,51.28
2023-03-24T04:53:48.895Z,50.78
2023-03-24T04:56:39.004Z,51.46
2023-03-24T04:59:12.889Z,52.18
2023-03-24T05:01:49.778Z,52.05
2023-03-24T05:04:49.217Z,51.69
2023-03-24T05:07:24.763Z,52.16
2023-03-24T05:09:57.408Z,51.72
2023-03-24T05:12:24.866Z,52.08
2023-03-24T05:15:17.798Z,51.89
2023-03-24T05:17:47.358Z,52.46
2023-03-24T05:20:15.690Z,52.22
2023-03-24T05:22:48.721Z,51.71
2023-03-24T05:25:17.207Z,50.98
2023-03-24T05:27:45.232Z,48.98
2023-03-24T05:30:20.582Z,49.12
2023-03-24T05:32:49.840Z,47.10
2023-03-24T05:35:17.369Z,45.91
2023-03-24T05:37:44.682Z,46.26
2023-03-24T05:40:12.805Z,46.75
2023-03-24T05:42:57.562Z,46.22
2023-03-24T05:45:29.453Z,49.44
2023-03-24T05:47:58.181Z,49.44
2023-03-24T05:50:38.042Z,48.94
2023-03-24T05:53:05.319Z,47.92
2023-03-24T05:55:55.071Z,50.30
2023-03-24T05:58:45.055Z,49.04
2023-03-24T06:01:12.648Z,48.67
2023-03-24T06:03:40.959Z,48.28
2023-03-24T06:06:16.899Z,49.56
2023-03-24T06:08:47.468Z,48.22
2023-03-24T06:11:16.900Z,48.80
2023-03-24T06:14:02.055Z,48.82
2023-03-24T06:16:41.094Z,48.31
2023-03-24T06:19:09.794Z,49.67
2023-03-24T06:21:54.697Z,49.44
2023-03-24T06:24:27.756Z,50.67
2023-03-24T06:27:02.544Z,50.88
2023-03-24T06:29:33.545Z,49.37
2023-03-24T06:32:01.238Z,49.50
2023-03-24T06:34:32.165Z,47.98
2023-03-24T06:37:27.656Z,46.91
2023-03-24T06:39:55.792Z,46.69
2023-03-24T06:42:27.236Z,49.23
2023-03-24T06:44:54.693Z,48.92
2023-03-24T06:47:22.435Z,49.82
2023-03-24T06:49:49.649Z,48.88
2023-03-24T06:52:17.257Z,49.04
2023-03-24T06:54:44.731Z,48.63
2023-03-24T06:57:11.968Z,49.25
2023-03-24T06:59:59.341Z,47.84
2023-03-24T07:02:35.729Z,50.01
2023-03-24T07:05:07.184Z,50.26
2023-03-24T07:10:41.428Z,50.61
2023-03-24T07:13:09.726Z,50.51
2023-03-24T07:15:39.423Z,49.78
2023-03-24T07:18:07.426Z,49.10
2023-03-24T07:20:38.721Z,49.28
2023-03-24T07:23:15.356Z,53.37
2023-03-24T07:25:52.224Z,52.80
2023-03-24T07:28:45.660Z,54.08
2023-03-24T07:31:15.105Z,54.94
2023-03-24T07:33:44.099Z,53.14
2023-03-24T07:36:11.748Z,53.20
2023-03-24T07:38:40.558Z,56.13
2023-03-24T07:41:12.289Z,59.82
2023-03-24T07:43:44.255Z,61.81
2023-03-24T07:46:25.097Z,62.49
2023-03-24T07:48:53.237Z,64.38
2023-03-24T07:51:20.610Z,65.45
2023-03-24T07:53:50.383Z,66.19
2023-03-24T07:56:43.571Z,65.99
2023-03-24T07:59:12.787Z,66.65
2023-03-24T08:01:59.213Z,68.25
2023-03-24T08:04:38.366Z,67.50
2023-03-24T08:07:20.267Z,69.55
2023-03-24T08:09:47.495Z,68.77
2023-03-24T08:12:20.320Z,65.27
2023-03-24T08:14:48.033Z,66.72
2023-03-24T08:17:15.298Z,64.05
2023-03-24T08:19:56.114Z,68.11
2023-03-24T08:22:27.269Z,67.52
2023-03-24T08:24:55.713Z,66.87
2023-03-24T08:27:23.475Z,67.92
2023-03-24T08:29:50.646Z,68.13
2023-03-24T08:32:17.781Z,65.82
2023-03-24T08:34:45.709Z,63.60
2023-03-24T08:37:12.999Z,64.68
2023-03-24T08:39:40.457Z,65.26
2023-03-24T08:42:07.684Z,64.67
2023-03-24T08:44:34.958Z,64.40
2023-03-24T08:47:02.241Z,64.73
2023-03-24T08:49:29.423Z,62.78
2023-03-24T08:51:56.721Z,66.04
2023-03-24T08:54:26.116Z,67.29
2023-03-24T08:56:53.441Z,67.21
2023-03-24T08:59:20.713Z,64.03
2023-03-24T09:01:48.266Z,65.93
2023-03-24T09:04:15.757Z,63.84
2023-03-24T09:06:43.593Z,63.76
2023-03-24T09:09:10.844Z,64.20
2023-03-24T09:11:38.764Z,59.54
2023-03-24T09:14:06.102Z,61.83
2023-03-24T09:16:34.560Z,58.90
2023-03-24T09:19:01.848Z,57.02
2023-03-24T09:21:29.130Z,55.90
2023-03-24T09:23:56.304Z,56.73
2023-03-24T09:26:23.402Z,56.41
2023-03-24T09:28:50.529Z,52.83
2023-03-24T09:31:17.748Z,56.27
2023-03-24T09:33:45.155Z,54.58
2023-03-24T09:36:12.550Z,53.09
2023-03-24T09:38:39.811Z,53.20
2023-03-24T09:41:19.777Z,51.60
2023-03-24T09:44:01.189Z,52.91
2023-03-24T09:46:48.826Z,51.14
2023-03-24T09:49:25.450Z,49.48
2023-03-24T09:52:07.621Z,47.49
2023-03-24T09:55:04.441Z,47.41
2023-03-24T09:57:39.364Z,46.60
2023-03-24T10:00:34.332Z,46.19
2023-03-24T10:03:23.190Z,44.93
2023-03-24T10:06:26.119Z,43.36
2023-03-24T10:09:34.992Z,40.79
2023-03-24T10:12:33.591Z,41.16
2023-03-24T10:15:49.180Z,39.08
2023-03-24T10:18:38.360Z,38.80
2023-03-24T10:21:27.972Z,38.75
2023-03-24T10:24:38.213Z,39.07
2023-03-24T10:27:36.371Z,39.12
2023-03-24T10:30:37.117Z,40.95
2023-03-24T10:33:04.564Z,40.21
2023-03-24T10:35:41.821Z,38.74
2023-03-24T10:38:21.081Z,37.95
2023-03-24T10:40:49.864Z,39.68
2023-03-24T10:43:19.527Z,40.26
2023-03-24T10:45:56.911Z,40.04
2023-03-24T10:51:20.367Z,40.08
2023-03-24T10:53:49.209Z,40.64
2023-03-24T10:56:48.945Z,40.80
2023-03-24T10:59:56.634Z,41.07
2023-03-24T11:02:32.165Z,41.15
2023-03-24T11:05:14.271Z,40.64
2023-03-24T11:07:49.582Z,40.94
2023-03-24T11:10:25.975Z,40.65
2023-03-24T11:12:57.792Z,39.44
2023-03-24T11:15:30.504Z,39.26
2023-03-24T11:18:17.139Z,38.12
2023-03-24T11:20:53.826Z,38.23
2023-03-24T11:23:40.639Z,37.13
2023-03-24T11:26:37.044Z,35.63
2023-03-24T11:29:20.676Z,34.71
2023-03-24T11:31:59.623Z,34.06
2023-03-24T11:34:38.651Z,35.09
2023-03-24T11:37:24.256Z,35.58
2023-03-24T11:40:26.338Z,35.27
2023-03-24T11:43:04.436Z,34.37
2023-03-24T11:45:42.259Z,33.98
2023-03-24T11:48:45.643Z,35.05
2023-03-24T11:51:25.683Z,36.01
2023-03-24T11:53:56.504Z,36.71
2023-03-24T11:56:40.753Z,37.44
2023-03-24T11:59:58.138Z,38.39
2023-03-24T12:03:14.931Z,37.71
2023-03-24T12:06:05.032Z,37.93
2023-03-24T12:09:20.264Z,37.76
2023-03-24T12:12:35.336Z,37.54
2023-03-24T12:15:55.040Z,37.24
2023-03-24T12:18:40.104Z,36.19
2023-03-24T12:21:51.908Z,36.35
2023-03-24T12:24:40.319Z,36.76
2023-03-24T12:27:42.334Z,35.60
2023-03-24T12:30:38.289Z,36.00
2023-03-24T12:33:26.351Z,35.77
2023-03-24T12:36:32.992Z,36.69
2023-03-24T12:39:10.240Z,37.43
2023-03-24T12:42:10.845Z,37.67
2023-03-24T12:45:56.091Z,37.85
2023-03-24T12:49:13.487Z,38.47
2023-03-24T12:52:16.854Z,38.44
2023-03-24T12:55:08.853Z,38.06
2023-03-24T12:57:54.898Z,38.82
2023-03-24T13:00:34.487Z,38.19
2023-03-24T13:03:12.055Z,38.60
2023-03-24T13:06:04.466Z,38.44
2023-03-24T13:08:41.081Z,37.97
2023-03-24T13:11:21.887Z,37.82
2023-03-24T13:14:02.480Z,37.86
2023-03-24T13:16:36.838Z,38.19
2023-03-24T13:19:14.863Z,38.36
2023-03-24T13:21:44.029Z,38.27
2023-03-24T13:24:15.392Z,38.54
2023-03-24T13:27:06.631Z,38.54
2023-03-24T13:30:02.404Z,38.34
2023-03-24T13:32:46.143Z,37.72
2023-03-24T13:35:39.700Z,38.54
2023-03-24T13:38:32.182Z,38.00
2023-03-24T13:41:05.094Z,37.97
2023-03-24T13:43:34.861Z,38.83
2023-03-24T13:46:13.593Z,39.74
2023-03-24T13:48:46.964Z,39.79
2023-03-24T13:51:30.241Z,39.31
2023-03-24T13:54:15.092Z,39.00
2023-03-24T13:57:07.294Z,40.11
2023-03-24T14:00:08.523Z,39.98
2023-03-24T14:02:55.800Z,39.78
2023-03-24T14:05:23.038Z,39.86
2023-03-24T14:08:03.316Z,39.76
2023-03-24T14:10:49.888Z,40.22
2023-03-24T14:13:17.063Z,39.72
2023-03-24T14:15:58.603Z,40.40
2023-03-24T14:18:26.446Z,40.58
2023-03-24T14:20:56.803Z,40.25
2023-03-24T14:23:52.512Z,40.69
2023-03-24T14:26:25.417Z,40.81
2023-03-24T14:28:55.731Z,42.27
2023-03-24T14:31:37.100Z,41.84
2023-03-24T14:34:21.139Z,40.86
2023-03-24T14:37:03.844Z,39.81
2023-03-24T14:39:45.548Z,39.80
2023-03-24T14:42:34.616Z,41.30
2023-03-24T14:45:53.632Z,45.05
2023-03-24T14:48:29.579Z,46.44
2023-03-24T14:51:12.692Z,46.09
2023-03-24T14:53:41.625Z,44.93
2023-03-24T14:56:16.796Z,46.33
2023-03-24T14:58:50.991Z,45.93
2023-03-24T15:01:18.559Z,44.95
2023-03-24T15:04:07.516Z,44.08
2023-03-24T15:06:48.143Z,44.90
2023-03-24T15:09:18.573Z,46.17
2023-03-24T15:11:48.483Z,46.68
2023-03-24T15:14:25.466Z,46.05
2023-03-24T15:17:23.199Z,46.59
2023-03-24T15:19:55.362Z,48.08
2023-03-24T15:22:22.534Z,47.40
2023-03-24T15:24:52.219Z,47.55
2023-03-24T15:27:26.840Z,46.98
2023-03-24T15:29:59.529Z,47.34
2023-03-24T15:32:32.901Z,48.44
2023-03-24T15:35:06.066Z,49.86
2023-03-24T15:37:40.657Z,51.59
2023-03-24T15:40:31.559Z,54.43
2023-03-24T15:43:06.808Z,55.76
2023-03-24T15:45:38.126Z,55.26
2023-03-24T15:48:24.593Z,56.83
2023-03-24T15:51:07.958Z,56.39
2023-03-24T15:54:25.677Z,56.28
2023-03-24T15:57:21.098Z,55.90
2023-03-24T15:59:58.920Z,54.62
2023-03-24T16:02:42.393Z,55.07
2023-03-24T16:05:26.659Z,55.09
2023-03-24T16:07:59.456Z,55.63
2023-03-24T16:10:44.838Z,56.15
2023-03-24T16:13:23.086Z,57.23
2023-03-24T16:16:09.762Z,55.97
2023-03-24T16:18:46.048Z,55.98
2023-03-24T16:21:30.787Z,57.52
2023-03-24T16:23:58.798Z,57.12
2023-03-24T16:26:31.492Z,55.79
2023-03-24T16:29:18.708Z,56.04
2023-03-24T16:31:51.438Z,54.59
2023-03-24T16:34:22.174Z,54.38
2023-03-24T16:36:53.332Z,54.50
2023-03-24T16:39:29.235Z,53.70
2023-03-24T16:41:57.224Z,52.74
2023-03-24T16:44:26.317Z,52.72
2023-03-24T16:46:57.607Z,51.53
2023-03-24T16:49:25.018Z,51.07
2023-03-24T16:51:56.114Z,50.66
2023-03-24T16:54:23.341Z,50.38
2023-03-24T16:56:50.837Z,49.01
2023-03-24T16:59:20.002Z,49.37
2023-03-24T17:01:52.875Z,49.38
2023-03-24T17:04:27.379Z,48.21
2023-03-24T17:06:55.064Z,47.83
2023-03-24T17:09:23.187Z,47.53
2023-03-24T17:11:53.634Z,48.02
2023-03-24T17:14:21.489Z,48.61
2023-03-24T17:16:50.647Z,48.68
2023-03-24T17:19:22.625Z,48.72
2023-03-24T17:22:04.992Z,49.50
2023-03-24T17:24:37.998Z,48.70
2023-03-24T17:27:18.821Z,48.16
2023-03-24T17:29:46.438Z,49.90
2023-03-24T17:32:13.648Z,49.68
2023-03-24T17:34:43.786Z,50.94
2023-03-24T17:37:11.475Z,52.26
2023-03-24T17:39:39.175Z,51.52
2023-03-24T17:42:06.466Z,50.23
2023-03-24T17:44:33.927Z,50.15
2023-03-24T17:47:01.156Z,51.62
2023-03-24T17:49:28.434Z,51.55
2023-03-24T17:51:55.693Z,51.90
2023-03-24T17:54:22.891Z,52.04
2023-03-24T17:56:50.383Z,50.91
2023-03-24T17:59:18.098Z,50.55
2023-03-24T18:01:47.184Z,50.50
2023-03-24T18:04:14.628Z,50.23
2023-03-24T18:06:42.363Z,49.68
2023-03-24T18:09:10.464Z,49.56
2023-03-24T18:11:38.530Z,49.94
2023-03-24T18:14:06.242Z,49.96
2023-03-24T18:16:35.568Z,49.02
2023-03-24T18:19:04.039Z,49.51
2023-03-24T18:21:31.954Z,50.09
2023-03-24T18:23:59.420Z,49.49
2023-03-24T18:26:26.884Z,50.17
2023-03-24T18:28:54.490Z,49.70
2023-03-24T18:31:25.832Z,49.41
2023-03-24T18:33:54.725Z,49.39
2023-03-24T18:36:26.661Z,49.54
2023-03-24T18:39:06.562Z,49.81
2023-03-24T18:41:37.098Z,50.28
2023-03-24T18:44:16.920Z,49.61
2023-03-24T18:46:44.629Z,49.11
2023-03-24T18:49:15.491Z,50.06
2023-03-24T18:51:45.063Z,49.68
2023-03-24T18:54:13.717Z,49.70
2023-03-24T18:56:41.841Z,50.09
2023-03-24T18:59:09.351Z,49.84
2023-03-24T19:01:36.587Z,49.64
2023-03-24T19:04:04.277Z,48.86
2023-03-24T19:06:31.940Z,49.73
2023-03-24T19:08:59.747Z,50.10
2023-03-24T19:11:27.363Z,49.72
2023-03-24T19:13:57.074Z,48.95
2023-03-24T19:16:24.587Z,49.09
2023-03-24T19:18:52.621Z,48.83
2023-03-24T19:21:23.087Z,49.36
2023-03-24T19:23:52.585Z,49.23
2023-03-24T19:26:20.592Z,48.94
2023-03-24T19:28:47.782Z,49.56
2023-03-24T19:31:18.892Z,49.21
2023-03-24T19:33:47.819Z,50.26
2023-03-24T19:36:18.198Z,49.88
2023-03-24T19:38:45.422Z,49.50
2023-03-24T19:41:15.948Z,48.92
2023-03-24T19:43:43.366Z,49.93
2023-03-24T19:46:10.896Z,50.02
2023-03-24T19:48:38.536Z,49.85
2023-03-24T19:51:06.208Z,49.31
2023-03-24T19:53:33.469Z,49.16
2023-03-24T19:56:01.337Z,49.27
2023-03-24T19:58:28.856Z,49.46
2023-03-24T20:00:56.732Z,48.97
2023-03-24T20:03:24.299Z,50.69
2023-03-24T20:05:51.902Z,51.56
2023-03-24T20:08:19.668Z,50.18
2023-03-24T20:10:47.073Z,49.43
2023-03-24T20:13:14.332Z,48.02
2023-03-24T20:15:41.673Z,48.98
2023-03-24T20:18:10.719Z,48.75
2023-03-24T20:20:38.226Z,48.59
2023-03-24T20:23:05.399Z,48.78
2023-03-24T20:25:32.645Z,48.75
2023-03-24T20:28:00.000Z,49.73
2023-03-24T20:30:30.129Z,49.07
2023-03-24T20:32:57.614Z,49.84
2023-03-24T20:35:26.019Z,50.23
2023-03-24T20:37:53.395Z,49.46
2023-03-24T20:40:21.692Z,49.71
2023-03-24T20:42:49.772Z,48.56
2023-03-24T20:45:17.550Z,49.00
2023-03-24T20:47:44.948Z,49.07
2023-03-24T20:50:12.299Z,48.87
2023-03-24T20:52:39.522Z,49.81
2023-03-24T20:55:08.766Z,49.89
2023-03-24T20:57:36.212Z,50.05
2023-03-24T21:00:13.252Z,49.48
2023-03-24T21:02:42.690Z,50.13
2023-03-24T21:05:10.609Z,49.08
2023-03-24T21:07:38.406Z,50.17
2023-03-24T21:10:10.181Z,49.00
2023-03-24T21:12:53.897Z,50.08
2023-03-24T21:15:25.022Z,49.03
2023-03-24T21:17:52.974Z,49.41
2023-03-24T21:20:20.933Z,49.39
2023-03-24T21:22:55.777Z,48.93
2023-03-24T21:25:31.444Z,48.90
2023-03-24T21:27:59.521Z,50.04
2023-03-24T21:30:29.047Z,49.45
2023-03-24T21:32:57.642Z,48.90
2023-03-24T21:35:25.431Z,50.02
2023-03-24T21:37:53.920Z,50.25
2023-03-24T21:40:25.386Z,50.80
2023-03-24T21:42:56.292Z,52.50
2023-03-24T21:45:24.178Z,53.08
2023-03-24T21:47:55.238Z,51.94
2023-03-24T21:50:23.504Z,51.35
2023-03-24T21:52:53.860Z,51.40
2023-03-24T21:55:23.155Z,52.21
2023-03-24T21:57:51.762Z,52.62
2023-03-24T22:00:26.317Z,51.71
2023-03-24T22:02:58.175Z,49.56
2023-03-24T22:05:28.992Z,53.45
2023-03-24T22:07:56.235Z,51.41
2023-03-24T22:10:24.584Z,51.55
2023-03-24T22:12:53.692Z,51.17
2023-03-24T22:15:22.226Z,51.52
2023-03-24T22:17:51.048Z,51.80
2023-03-24T22:20:20.148Z,51.69
2023-03-24T22:22:47.606Z,51.33
2023-03-24T22:25:18.737Z,50.13
2023-03-24T22:27:49.439Z,47.74
2023-03-24T22:30:18.584Z,49.42
2023-03-24T22:32:45.758Z,48.47
2023-03-24T22:35:12.869Z,49.02
2023-03-24T22:37:40.391Z,48.28
2023-03-24T22:40:09.641Z,48.83
2023-03-24T22:42:36.999Z,49.81
2023-03-24T22:45:05.620Z,50.69
2023-03-24T22:47:32.854Z,49.52
2023-03-24T22:49:59.970Z,49.63
2023-03-24T22:52:28.133Z,48.95
2023-03-24T22:54:55.665Z,50.06
2023-03-24T22:57:22.910Z,49.54
2023-03-24T22:59:51.007Z,48.98
2023-03-24T23:02:24.423Z,48.96
2023-03-24T23:04:51.871Z,48.81
2023-03-24T23:07:22.499Z,52.71
2023-03-24T23:09:49.991Z,52.91
2023-03-24T23:12:17.277Z,53.08
2023-03-24T23:14:46.346Z,57.78
2023-03-24T23:17:15.671Z,59.56
2023-03-24T23:19:43.512Z,63.63
2023-03-24T23:22:11.287Z,65.59
2023-03-24T23:24:39.594Z,64.22
2023-03-24T23:27:07.366Z,63.80
2023-03-24T23:29:34.656Z,63.68
2023-03-24T23:32:01.899Z,66.81
2023-03-24T23:34:29.071Z,65.39
2023-03-24T23:36:56.923Z,64.99
2023-03-24T23:39:24.175Z,62.87
2023-03-24T23:41:51.414Z,64.64
2023-03-24T23:44:19.875Z,62.74
2023-03-24T23:46:47.274Z,62.17
2023-03-24T23:49:14.608Z,61.09
2023-03-24T23:51:41.864Z,59.80
2023-03-24T23:54:09.123Z,60.44
2023-03-24T23:56:36.759Z,61.64
2023-03-24T23:59:07.515Z,62.47
